Time;durP1;ratioP1;P1;durP2;ratioP2;P2;SDS_P1;SDS_P2;PMS_P1;PMS_P2;Temp;Humidity;BMP_temperature;BMP_pressure;BME280_temperature;BME280_humidity;BME280_pressure;Samples;Min_cycle;Max_cycle;Signal;HPM_P1;HPM_P2
2024/04/11 00:00:34;;;;;;;2.42;1.60;;;13.60;99.90;;;;;;5221962;27;20396;-95
2024/04/11 00:03:02;;;;;;;7.05;1.38;;;13.60;99.90;;;;;;5234949;27;20035;-96
2024/04/11 00:05:28;;;;;;;8.48;1.70;;;13.10;99.90;;;;;;5262743;27;20011;-96
2024/04/11 00:07:54;;;;;;;4.45;1.48;;;13.20;99.90;;;;;;5265437;27;20003;-95
2024/04/11 00:10:19;;;;;;;3.50;1.23;;;13.60;99.90;;;;;;5241938;27;19988;-95
2024/04/11 00:12:45;;;;;;;6.50;1.58;;;13.10;99.90;;;;;;5234616;27;20018;-94
2024/04/11 00:15:10;;;;;;;8.43;1.65;;;14.00;99.90;;;;;;5232410;27;19999;-94
2024/04/11 00:20:16;;;;;;;7.70;1.73;;;13.20;99.90;;;;;;5718193;22;20048;-94
2024/04/11 00:22:41;;;;;;;6.53;1.47;;;13.40;99.90;;;;;;5203485;27;19996;-95
2024/04/11 00:25:07;;;;;;;4.45;1.65;;;13.20;99.90;;;;;;5219370;27;20010;-94
2024/04/11 00:32:43;;;;;;;6.50;1.70;;;13.10;99.90;;;;;;5344498;22;20011;-94
2024/04/11 00:35:09;;;;;;;5.95;1.45;;;13.40;99.90;;;;;;5269750;27;20002;-96
2024/04/11 00:37:36;;;;;;;7.15;1.75;;;13.10;99.90;;;;;;5253411;27;19999;-93
2024/04/11 01:30:59;;;;;;;6.05;1.70;;;13.40;99.90;;;;;;5165641;27;19932;-94
2024/04/11 01:33:25;;;;;;;6.75;1.67;;;14.00;99.90;;;;;;5168469;27;19993;-94
2024/04/11 01:35:51;;;;;;;6.28;1.60;;;13.60;99.90;;;;;;5168194;27;20062;-95
2024/04/11 01:38:17;;;;;;;6.22;2.35;;;13.90;99.90;;;;;;5168761;27;20013;-93
2024/04/11 01:40:46;;;;;;;5.82;1.70;;;13.70;99.90;;;;;;5169367;27;20020;-95
2024/04/11 02:05:31;;;;;;;10.02;2.05;;;13.40;99.90;;;;;;5773988;22;20045;-94
2024/04/11 02:18:30;;;;;;;4.60;1.65;;;13.40;99.90;;;;;;5206232;22;20003;-96
2024/04/11 02:20:56;;;;;;;13.32;2.85;;;13.30;99.90;;;;;;5202570;27;19992;-96
2024/04/11 02:23:22;;;;;;;9.07;2.20;;;13.10;99.90;;;;;;5202356;27;20048;-96
2024/04/11 02:25:50;;;;;;;6.40;1.88;;;13.70;99.90;;;;;;5194027;27;20012;-95
2024/04/11 02:28:16;;;;;;;7.35;1.85;;;13.20;99.90;;;;;;5201205;27;20011;-95
2024/04/11 02:30:43;;;;;;;10.90;1.80;;;12.80;99.90;;;;;;5195612;27;19997;-94
2024/04/11 02:33:10;;;;;;;9.15;1.77;;;13.30;99.90;;;;;;5191319;27;20008;-95
2024/04/11 02:35:38;;;;;;;13.10;2.05;;;14.00;99.90;;;;;;5192721;27;20023;-95
2024/04/11 02:38:04;;;;;;;4.07;1.55;;;13.40;99.90;;;;;;5192637;27;20000;-94
2024/04/11 02:40:30;;;;;;;10.15;1.95;;;13.20;99.90;;;;;;5196472;27;20015;-94
2024/04/11 02:42:56;;;;;;;7.13;1.90;;;13.40;99.90;;;;;;5196224;27;20018;-94
2024/04/11 02:45:22;;;;;;;6.85;2.13;;;13.20;99.90;;;;;;5195600;27;20044;-94
2024/04/11 02:47:48;;;;;;;6.88;2.05;;;14.50;99.90;;;;;;5193303;27;20004;-94
2024/04/11 02:50:15;;;;;;;6.22;1.65;;;13.40;99.90;;;;;;5192656;27;19997;-94
2024/04/11 02:52:43;;;;;;;6.30;1.95;;;13.20;99.90;;;;;;5197208;27;20024;-95
2024/04/11 02:55:11;;;;;;;4.97;1.92;;;13.40;99.90;;;;;;5196492;27;20000;-95
2024/04/11 02:57:37;;;;;;;6.75;1.70;;;13.20;99.90;;;;;;5199118;27;20016;-95
2024/04/11 03:00:04;;;;;;;11.45;2.13;;;12.80;99.90;;;;;;5197205;27;20028;-95
2024/04/11 03:02:33;;;;;;;5.88;1.63;;;12.60;99.90;;;;;;5197184;27;20004;-96
2024/04/11 03:05:00;;;;;;;5.93;1.80;;;13.60;99.90;;;;;;5196496;27;20057;-95
2024/04/11 03:07:27;;;;;;;7.32;2.03;;;13.30;99.90;;;;;;5196951;27;20019;-95
2024/04/11 03:09:54;;;;;;;6.50;2.53;;;12.60;99.90;;;;;;5180882;27;19992;-94
2024/04/11 03:12:20;;;;;;;9.77;2.55;;;13.10;99.90;;;;;;5188153;27;20019;-96
2024/04/11 03:14:47;;;;;;;9.65;2.00;;;12.50;99.90;;;;;;5165119;27;20001;-94
2024/04/11 03:17:13;;;;;;;6.38;2.08;;;13.60;99.90;;;;;;5189396;27;20005;-94
2024/04/11 03:19:40;;;;;;;6.70;2.13;;;14.00;99.90;;;;;;5200224;27;20000;-96
2024/04/11 03:22:06;;;;;;;6.35;2.30;;;13.60;99.90;;;;;;5199576;27;20005;-95
2024/04/11 03:24:42;;;;;;;7.78;2.47;;;13.20;99.90;;;;;;5195810;27;20007;-94
2024/04/11 03:27:07;;;;;;;8.05;2.28;;;12.50;99.90;;;;;;5179178;27;20005;-94
2024/04/11 03:29:33;;;;;;;9.00;2.90;;;13.10;99.90;;;;;;5173613;27;20049;-95
2024/04/11 03:32:07;;;;;;;7.30;3.00;;;12.80;99.90;;;;;;5199790;27;20004;-96
2024/04/11 03:34:32;;;;;;;6.00;2.25;;;13.10;99.90;;;;;;5200596;27;20012;-96
2024/04/11 03:36:58;;;;;;;9.88;2.30;;;12.50;99.90;;;;;;5199547;27;20004;-94
2024/04/11 03:39:25;;;;;;;13.90;2.47;;;13.80;99.90;;;;;;5199611;27;20000;-95
2024/04/11 03:41:52;;;;;;;4.15;2.22;;;14.50;99.90;;;;;;5199666;27;20000;-94
2024/04/11 03:44:19;;;;;;;8.30;2.47;;;12.80;99.90;;;;;;5198790;27;20032;-95
2024/04/11 03:46:44;;;;;;;8.48;2.38;;;13.60;99.90;;;;;;5199581;27;20055;-96
2024/04/11 03:49:10;;;;;;;8.10;2.40;;;14.50;99.90;;;;;;5190019;27;20004;-94
2024/04/11 03:51:39;;;;;;;7.22;1.92;;;13.30;99.90;;;;;;5181439;27;20009;-95
2024/04/11 03:54:09;;;;;;;5.63;2.00;;;13.50;99.90;;;;;;5153888;27;20013;-95
2024/04/11 03:56:35;;;;;;;7.57;2.25;;;12.00;99.90;;;;;;5169070;27;20081;-94
2024/04/11 03:59:03;;;;;;;5.95;2.10;;;12.80;99.90;;;;;;5194576;27;20008;-96
2024/04/11 04:01:30;;;;;;;4.93;1.92;;;13.10;99.90;;;;;;5200589;27;20008;-95
2024/04/11 04:04:03;;;;;;;7.22;2.10;;;14.00;99.90;;;;;;5201421;27;19997;-95
2024/04/11 04:06:33;;;;;;;7.88;1.90;;;13.10;99.90;;;;;;5202463;27;20008;-95
2024/04/11 04:08:59;;;;;;;;;;;13.90;99.90;;;;;;5200351;27;20007;-95
2024/04/11 04:11:28;;;;;;;6.20;2.45;;;13.10;99.90;;;;;;5198579;27;19929;-95
2024/04/11 04:13:54;;;;;;;6.65;2.65;;;13.60;99.90;;;;;;5196520;27;20011;-95
2024/04/11 04:16:20;;;;;;;5.60;1.80;;;12.90;99.90;;;;;;5193936;27;20263;-92
2024/04/11 04:18:50;;;;;;;6.22;2.38;;;13.60;99.90;;;;;;5194442;27;20489;-95
2024/04/11 04:21:20;;;;;;;6.43;2.33;;;13.80;99.90;;;;;;5196207;27;20127;-95
2024/04/11 04:23:48;;;;;;;5.70;2.10;;;12.90;99.90;;;;;;5197902;27;19992;-95
2024/04/11 04:26:20;;;;;;;5.75;2.03;;;13.10;99.90;;;;;;5181538;27;20230;-95
2024/04/11 04:28:48;;;;;;;5.57;1.80;;;12.70;99.90;;;;;;5166005;27;20009;-95
2024/04/11 04:31:25;;;;;;;6.07;1.70;;;13.60;99.90;;;;;;5166083;27;20025;-95
2024/04/11 04:33:53;;;;;;;9.65;2.40;;;13.60;99.90;;;;;;5154678;27;20012;-94
2024/04/11 04:42:40;;;;;;;9.00;2.20;;;13.00;99.90;;;;;;6257040;22;20062;31
2024/04/11 04:45:12;;;;;;;12.43;2.63;;;13.00;99.90;;;;;;5073722;28;20034;-95
2024/04/11 05:26:24;;;;;;;9.35;3.95;;;12.90;99.90;;;;;;5154818;27;20029;-94
2024/04/11 05:28:54;;;;;;;4.55;3.03;;;12.90;99.90;;;;;;5158661;27;20009;-95
2024/04/11 05:33:53;;;;;;;9.40;3.63;;;12.80;99.90;;;;;;5125326;28;20065;-94
2024/04/11 05:36:29;;;;;;;7.50;3.00;;;12.80;99.90;;;;;;5055952;28;20014;-93
2024/04/11 05:38:58;;;;;;;7.82;3.45;;;12.80;99.90;;;;;;5136635;28;19994;-94
2024/04/11 05:41:25;;;;;;;8.25;3.55;;;12.80;99.90;;;;;;5136521;28;20010;-94
2024/04/11 05:43:58;;;;;;;5.97;3.17;;;13.40;99.90;;;;;;5136195;28;20034;-94
2024/04/11 05:46:24;;;;;;;5.88;3.58;;;12.80;99.90;;;;;;5136153;27;20058;-94
2024/04/11 05:48:51;;;;;;;10.57;3.67;;;12.90;99.90;;;;;;5109154;27;20010;-94
2024/04/11 05:51:19;;;;;;;8.15;4.32;;;12.90;99.90;;;;;;5136805;28;19997;-94
2024/04/11 05:56:20;;;;;;;10.07;4.38;;;12.70;99.90;;;;;;5823845;22;20007;-91
2024/04/11 06:11:55;;;;;;;9.18;4.72;;;12.50;99.90;;;;;;5463630;22;20055;-91
2024/04/11 06:14:21;;;;;;;11.80;4.65;;;13.30;99.90;;;;;;5189129;27;20012;-93
2024/04/11 06:16:47;;;;;;;9.20;4.45;;;13.30;99.90;;;;;;5197977;27;20070;-95
2024/04/11 06:19:12;;;;;;;5.68;4.28;;;12.20;99.90;;;;;;5197302;27;20000;-95
2024/04/11 06:36:06;;;;;;;9.65;4.47;;;12.50;99.90;;;;;;5474863;22;20528;-96
2024/04/11 06:38:32;;;;;;;11.65;3.88;;;12.50;99.90;;;;;;5200323;27;20011;-96
2024/04/11 06:40:58;;;;;;;5.53;3.45;;;13.30;99.90;;;;;;5196700;27;20008;-95
2024/04/11 06:43:25;;;;;;;14.23;4.25;;;12.80;99.90;;;;;;5198549;27;19992;-95
2024/04/11 06:45:55;;;;;;;7.35;3.80;;;12.50;99.90;;;;;;5198452;27;20008;-96
2024/04/11 06:48:21;;;;;;;;;;;12.00;99.90;;;;;;5172489;27;20011;-95
2024/04/11 06:50:56;;;;;;;9.40;4.55;;;11.80;99.90;;;;;;5190776;27;19928;-95
2024/04/11 06:53:22;;;;;;;10.75;4.30;;;12.60;99.90;;;;;;5195746;27;20008;-95
2024/04/11 06:55:47;;;;;;;16.45;4.63;;;12.50;99.90;;;;;;5186900;27;19989;-95
2024/04/11 06:58:20;;;;;;;12.35;4.22;;;12.70;99.90;;;;;;5263130;22;20005;-94
2024/04/11 07:01:04;;;;;;;8.50;5.32;;;12.40;99.90;;;;;;5158960;27;20001;-94
2024/04/11 07:03:49;;;;;;;10.60;4.70;;;12.00;99.90;;;;;;5158849;27;20013;-94
2024/04/11 07:19:58;;;;;;;9.07;4.70;;;12.60;99.90;;;;;;5161401;27;20026;-95
2024/04/11 07:22:29;;;;;;;9.35;4.50;;;12.60;99.90;;;;;;5162131;27;20005;-94
2024/04/11 07:24:55;;;;;;;8.02;4.05;;;12.90;99.90;;;;;;5162331;27;19993;-95
2024/04/11 07:27:21;;;;;;;7.78;3.97;;;12.60;99.90;;;;;;5160459;27;20016;-94
2024/04/11 07:29:47;;;;;;;7.30;4.43;;;12.60;99.90;;;;;;5153084;27;20457;-95
2024/04/11 07:32:13;;;;;;;10.40;4.78;;;13.30;99.90;;;;;;5160557;27;20001;-93
2024/04/11 07:37:14;;;;;;;14.95;5.60;;;12.70;99.90;;;;;;5960354;22;20005;-94
2024/04/11 07:39:40;;;;;;;14.65;5.10;;;14.30;99.90;;;;;;5186619;27;20004;-93
2024/04/11 07:42:47;;;;;;;7.60;4.95;;;13.30;99.90;;;;;;5190569;27;20011;-89
2024/04/11 07:45:06;;;;;;;;;;;12.70;99.90;;;;;;5193623;27;20056;-94
2024/04/11 07:47:37;;;;;;;10.05;5.45;;;12.70;99.90;;;;;;5186900;27;19929;-94
2024/04/11 07:50:02;;;;;;;8.32;5.90;;;12.90;99.90;;;;;;5181368;27;20008;-92
2024/04/11 07:52:28;;;;;;;11.55;5.85;;;12.80;99.90;;;;;;5180308;27;20016;-92
2024/04/11 07:55:04;;;;;;;12.93;5.38;;;12.90;99.90;;;;;;5182871;27;20366;-91
2024/04/11 07:57:38;;;;;;;14.65;5.97;;;12.80;99.90;;;;;;5181745;27;20000;-91
2024/04/11 08:00:04;;;;;;;13.40;7.15;;;13.20;99.90;;;;;;5181086;27;20005;-90
2024/04/11 08:02:30;;;;;;;11.68;6.82;;;12.90;99.90;;;;;;5178822;27;20037;-91
2024/04/11 08:05:05;;;;;;;11.52;7.20;;;13.40;99.90;;;;;;5179622;27;20004;-88
2024/04/11 08:07:30;;;;;;;8.73;6.13;;;12.90;99.90;;;;;;5160132;27;20005;-89
2024/04/11 08:09:58;;;;;;;10.55;6.80;;;13.80;99.90;;;;;;5158423;27;20019;-89
2024/04/11 08:12:24;;;;;;;17.67;7.45;;;13.90;99.90;;;;;;5148928;27;20057;-90
2024/04/11 08:14:50;;;;;;;8.95;6.13;;;13.00;99.90;;;;;;5145484;27;20009;-91
2024/04/11 08:17:15;;;;;;;11.88;6.60;;;13.10;99.90;;;;;;5145521;27;20024;-91
2024/04/11 08:19:41;;;;;;;12.63;7.25;;;13.10;99.90;;;;;;5145537;27;20111;-90
2024/04/11 08:22:07;;;;;;;16.02;6.97;;;13.90;99.90;;;;;;5145857;27;20017;-91
2024/04/11 08:24:33;;;;;;;14.30;6.88;;;13.20;99.90;;;;;;5146167;27;20012;-93
2024/04/11 08:26:58;;;;;;;13.50;7.55;;;13.10;99.90;;;;;;5150204;27;20016;-93
2024/04/11 08:29:24;;;;;;;9.90;6.95;;;13.10;99.90;;;;;;5170056;27;20402;-91
2024/04/11 08:31:52;;;;;;;18.92;7.40;;;13.00;99.90;;;;;;5178158;27;20544;-91
2024/04/11 08:34:20;;;;;;;12.50;7.68;;;12.90;99.90;;;;;;5187690;27;19996;-93
2024/04/11 08:36:46;;;;;;;10.20;7.40;;;13.10;99.90;;;;;;5201774;27;20001;-93
2024/04/11 08:39:14;;;;;;;13.63;7.32;;;13.10;99.90;;;;;;5203205;27;19995;-94
2024/04/11 08:41:42;;;;;;;11.63;8.57;;;13.20;99.90;;;;;;5197694;27;20008;-95
2024/04/11 08:44:08;;;;;;;9.50;8.55;;;13.10;99.90;;;;;;5186735;27;20000;-94
2024/04/11 08:46:35;;;;;;;10.18;8.52;;;13.20;99.90;;;;;;5185019;27;20091;-89
2024/04/11 08:49:03;;;;;;;12.60;9.45;;;13.10;99.90;;;;;;5183125;27;20005;-94
2024/04/11 08:51:33;;;;;;;17.67;9.02;;;13.10;99.90;;;;;;5163246;27;20085;-93
2024/04/11 08:54:02;;;;;;;15.27;9.30;;;13.10;99.90;;;;;;5182110;27;20015;-92
2024/04/11 08:56:29;;;;;;;13.23;10.50;;;13.00;99.90;;;;;;5181904;27;20004;-88
2024/04/11 08:58:55;;;;;;;15.07;10.15;;;13.00;99.90;;;;;;5182304;27;20000;-93
2024/04/11 09:01:21;;;;;;;17.67;10.63;;;13.00;99.90;;;;;;5181835;27;20023;-95
2024/04/11 09:03:49;;;;;;;18.38;11.38;;;13.00;99.90;;;;;;5182306;27;20008;-91
2024/04/11 09:06:28;;;;;;;13.90;10.77;;;13.60;99.90;;;;;;5183308;27;20001;-93
2024/04/11 09:08:55;;;;;;;14.82;10.00;;;13.10;99.90;;;;;;5179599;27;20008;-93
2024/04/11 09:11:27;;;;;;;13.27;10.85;;;13.10;99.90;;;;;;5184023;27;20004;-91
2024/04/11 09:13:54;;;;;;;17.75;10.80;;;13.20;99.90;;;;;;5185323;27;20010;-94
2024/04/11 09:16:26;;;;;;;14.23;10.85;;;13.20;99.90;;;;;;5183183;27;20457;-93
2024/04/11 09:19:08;;;;;;;16.50;10.88;;;13.20;99.90;;;;;;5183144;27;20058;-95
2024/04/11 09:21:43;;;;;;;14.85;11.00;;;13.30;99.90;;;;;;5180774;27;20032;-87
2024/04/11 09:24:13;;;;;;;21.88;12.10;;;13.60;99.90;;;;;;5164502;27;20000;-87
2024/04/11 09:26:43;;;;;;;20.20;12.20;;;13.30;99.90;;;;;;5177523;27;20008;-85
2024/04/11 09:29:11;;;;;;;21.60;13.73;;;13.30;99.90;;;;;;5156914;27;19997;-94
2024/04/11 09:31:38;;;;;;;19.42;12.50;;;13.30;99.90;;;;;;5184020;27;20016;-94
2024/04/11 09:34:13;;;;;;;19.90;13.60;;;13.40;99.90;;;;;;5187393;27;20004;-93
2024/04/11 09:36:47;;;;;;;21.67;14.70;;;13.40;99.90;;;;;;5199489;27;19993;-91
2024/04/11 09:39:41;;;;;;;21.52;13.20;;;13.30;99.90;;;;;;5193208;27;20015;-95
2024/04/11 09:42:06;;;;;;;22.52;14.52;;;13.20;99.90;;;;;;5151096;27;20094;-93
2024/04/11 09:44:33;;;;;;;21.83;14.45;;;13.30;99.90;;;;;;5164306;27;20077;-93
2024/04/11 09:47:00;;;;;;;26.38;16.08;;;13.20;99.90;;;;;;5162046;27;19997;-91
2024/04/11 09:49:30;;;;;;;22.42;15.15;;;13.20;99.90;;;;;;5152599;27;20015;-93
2024/04/11 09:51:55;;;;;;;29.42;15.00;;;13.20;99.90;;;;;;5153132;27;20012;-91
2024/04/11 09:54:22;;;;;;;24.95;15.30;;;13.20;99.90;;;;;;5153167;27;20005;-93
2024/04/11 09:56:48;;;;;;;28.30;16.05;;;13.90;99.90;;;;;;5165837;27;20019;-92
2024/04/11 09:59:15;;;;;;;21.13;13.65;;;13.20;99.90;;;;;;5198430;27;20052;-93
2024/04/11 10:01:41;;;;;;;22.88;15.20;;;13.10;99.90;;;;;;5189548;27;20016;-93
2024/04/11 10:04:25;;;;;;;21.33;14.43;;;13.10;99.90;;;;;;5169922;27;20443;-93
2024/04/11 10:06:59;;;;;;;19.73;13.82;;;13.10;99.90;;;;;;5154242;27;20017;-93
2024/04/11 10:09:29;;;;;;;19.15;13.90;;;13.50;99.90;;;;;;5153328;27;20061;-91
2024/04/11 10:12:01;;;;;;;17.50;12.32;;;13.10;99.90;;;;;;5157961;27;20040;-92
2024/04/11 10:14:31;;;;;;;15.95;12.63;;;13.10;99.90;;;;;;5184809;27;20040;-93
2024/04/11 10:17:07;;;;;;;;;;;13.10;99.90;;;;;;5181219;27;20019;-93
2024/04/11 10:19:38;;;;;;;18.80;12.10;;;13.10;99.90;;;;;;5182492;27;19928;-92
2024/04/11 10:22:06;;;;;;;20.05;12.50;;;13.20;99.90;;;;;;5186427;27;20001;-92
2024/04/11 10:24:36;;;;;;;17.00;11.70;;;13.30;99.90;;;;;;5175655;27;20005;-94
2024/04/11 10:27:17;;;;;;;16.27;11.85;;;13.20;99.90;;;;;;5184721;27;20040;-95
2024/04/11 10:29:48;;;;;;;19.20;12.18;;;13.20;99.90;;;;;;5195650;27;20012;-95
2024/04/11 10:32:22;;;;;;;16.63;11.82;;;13.30;99.90;;;;;;5191962;27;20000;-95
2024/04/11 10:34:56;;;;;;;16.42;11.05;;;13.30;99.90;;;;;;5189630;27;20056;-94
2024/04/11 10:37:26;;;;;;;21.75;11.10;;;13.20;99.90;;;;;;5176220;27;20005;-94
2024/04/11 10:39:54;;;;;;;15.15;10.20;;;13.30;99.90;;;;;;5169070;27;20009;-96
2024/04/11 10:42:27;;;;;;;18.63;10.25;;;13.30;99.90;;;;;;5190901;27;20010;-94
2024/04/11 10:44:54;;;;;;;15.73;10.23;;;13.20;99.90;;;;;;5190288;27;20446;-94
2024/04/11 10:47:21;;;;;;;14.65;10.57;;;13.20;99.90;;;;;;5196166;27;20000;-95
2024/04/11 10:49:49;;;;;;;15.13;9.48;;;13.30;99.90;;;;;;5184484;27;20012;-89
2024/04/11 10:52:16;;;;;;;15.57;9.25;;;13.30;99.90;;;;;;5183495;27;20001;-94
2024/04/11 10:54:43;;;;;;;12.88;8.43;;;13.30;99.90;;;;;;5170011;27;20004;-91
2024/04/11 10:57:13;;;;;;;18.70;9.80;;;13.40;99.90;;;;;;5177515;27;20004;-91
2024/04/11 10:59:50;;;;;;;14.27;9.13;;;13.50;99.90;;;;;;5176978;27;20019;-93
2024/04/11 11:02:19;;;;;;;13.15;7.68;;;13.50;99.90;;;;;;5164475;27;20077;-90
2024/04/11 11:04:49;;;;;;;13.65;8.60;;;13.40;99.90;;;;;;5151214;27;20012;-93
2024/04/11 11:07:20;;;;;;;15.52;8.30;;;13.50;99.90;;;;;;5179886;27;20038;-93
2024/04/11 11:09:51;;;;;;;17.45;8.10;;;13.50;99.90;;;;;;5180225;27;20001;-91
2024/04/11 11:12:23;;;;;;;14.90;7.82;;;13.50;99.90;;;;;;5179763;27;20011;-93
2024/04/11 11:14:55;;;;;;;12.60;7.57;;;13.60;99.90;;;;;;5181761;27;20011;-91
2024/04/11 11:17:27;;;;;;;12.00;7.95;;;13.60;99.90;;;;;;5195709;27;19992;-91
2024/04/11 11:19:55;;;;;;;12.38;8.32;;;13.70;99.90;;;;;;5185942;27;20011;-90
2024/04/11 11:22:34;;;;;;;13.68;8.57;;;13.70;99.90;;;;;;5179346;27;20016;-91
2024/04/11 11:25:00;;;;;;;16.35;8.18;;;13.70;99.90;;;;;;5179894;27;20005;-90
2024/04/11 11:27:31;;;;;;;19.27;8.20;;;13.80;99.90;;;;;;5180104;27;20071;-92
2024/04/11 11:29:57;;;;;;;11.82;7.93;;;13.80;99.90;;;;;;5179546;27;20008;-90
2024/04/11 11:32:25;;;;;;;12.63;8.27;;;13.90;99.90;;;;;;5179628;27;20352;-90
2024/04/11 11:34:52;;;;;;;19.00;9.57;;;13.80;99.90;;;;;;5179714;27;20076;-91
2024/04/11 11:37:21;;;;;;;13.43;9.10;;;13.80;99.90;;;;;;5177534;27;20004;-91
2024/04/11 11:39:55;;;;;;;11.82;8.70;;;13.90;99.90;;;;;;5171279;27;20004;-90
2024/04/11 11:42:26;;;;;;;13.38;8.32;;;13.90;99.90;;;;;;5163197;27;20001;-91
2024/04/11 11:47:33;;;;;;;8.98;7.68;;;14.00;99.90;;;;;;5179960;27;20011;-91
2024/04/11 11:50:07;;;;;;;15.15;8.38;;;14.00;99.90;;;;;;5180103;27;20007;-93
2024/04/11 11:52:44;;;;;;;13.00;8.25;;;14.00;99.90;;;;;;5179213;27;20080;-93
2024/04/11 11:55:17;;;;;;;17.00;8.20;;;14.10;99.90;;;;;;5179587;27;20009;-91
2024/04/11 11:57:43;;;;;;;13.05;7.85;;;14.10;99.90;;;;;;5179257;27;20045;-91
2024/04/11 12:00:32;;;;;;;10.85;8.10;;;14.10;99.90;;;;;;5178436;27;20023;-90
2024/04/11 12:03:00;;;;;;;13.35;7.90;;;14.10;99.90;;;;;;5171209;27;20012;-93
2024/04/11 12:05:27;;;;;;;13.63;8.50;;;14.20;99.90;;;;;;5162923;27;20005;-91
2024/04/11 12:07:59;;;;;;;12.68;7.03;;;14.20;99.90;;;;;;5180392;27;20004;-89
2024/04/11 12:13:18;;;;;;;13.00;6.35;;;14.50;99.90;;;;;;5176600;27;20045;-92
2024/04/11 12:15:48;;;;;;;8.23;6.13;;;14.40;99.90;;;;;;5181014;27;20429;-86
2024/04/11 12:18:22;;;;;;;10.60;6.65;;;14.30;99.90;;;;;;5187670;27;20004;-90
2024/04/11 12:20:51;;;;;;;10.60;6.82;;;14.40;99.90;;;;;;5179591;27;20540;-86
2024/04/11 12:23:20;;;;;;;12.50;6.82;;;14.50;99.90;;;;;;5176059;27;20139;-89
2024/04/11 12:25:46;;;;;;;8.23;6.43;;;14.60;99.90;;;;;;5153250;27;20001;-89
2024/04/11 12:28:12;;;;;;;10.43;6.75;;;15.00;99.90;;;;;;5147222;27;20024;-88
2024/04/11 12:30:40;;;;;;;10.27;6.72;;;14.80;99.90;;;;;;5119067;27;20005;-87
2024/04/11 12:33:08;;;;;;;12.15;7.40;;;14.50;99.90;;;;;;5147150;27;20009;-89
2024/04/11 12:35:54;;;;;;;9.38;7.03;;;14.90;99.90;;;;;;5147471;27;20002;-86
2024/04/11 12:38:21;;;;;;;9.23;7.28;;;14.50;99.90;;;;;;5188671;27;20004;-87
2024/04/11 12:40:50;;;;;;;12.00;8.20;;;14.50;99.90;;;;;;5157273;27;20020;-88
2024/04/11 12:43:19;;;;;;;9.35;6.32;;;14.50;99.90;;;;;;5146810;27;20045;-85
2024/04/11 12:45:52;;;;;;;11.23;7.38;;;14.50;99.90;;;;;;5156667;27;20012;-86
2024/04/11 12:48:25;;;;;;;10.48;7.35;;;14.10;99.90;;;;;;5178163;27;20008;-88
2024/04/11 12:50:54;;;;;;;13.63;6.97;;;14.60;99.90;;;;;;5180053;27;20079;-87
2024/04/11 12:53:25;;;;;;;12.70;7.20;;;14.60;99.90;;;;;;5178816;27;20004;-87
2024/04/11 12:55:58;;;;;;;15.68;7.50;;;14.70;99.90;;;;;;5175546;27;20476;-88
2024/04/11 12:58:24;;;;;;;14.40;8.15;;;14.70;99.90;;;;;;5179424;27;20000;-87
2024/04/11 13:01:03;;;;;;;13.73;7.78;;;14.80;99.90;;;;;;5179343;27;20005;-87
2024/04/11 13:03:52;;;;;;;12.13;7.47;;;14.00;99.90;;;;;;5180599;27;20334;-86
2024/04/11 13:06:29;;;;;;;11.15;7.32;;;14.80;99.90;;;;;;5192971;27;20004;-91
2024/04/11 13:09:10;;;;;;;14.13;7.97;;;14.80;99.90;;;;;;5186730;27;20564;-93
2024/04/11 13:11:38;;;;;;;10.57;7.72;;;14.80;99.90;;;;;;5180635;27;20016;-91
2024/04/11 13:14:10;;;;;;;11.05;6.72;;;14.80;99.90;;;;;;5169758;27;20011;-94
2024/04/11 13:17:00;;;;;;;12.55;6.85;;;14.10;99.90;;;;;;5178996;27;20004;-89
2024/04/11 13:19:34;;;;;;;10.00;6.97;;;15.00;99.90;;;;;;5175130;27;20028;-89
2024/04/11 13:22:03;;;;;;;11.05;6.68;;;14.80;99.90;;;;;;5171962;27;20019;-87
2024/04/11 13:24:59;;;;;;;10.55;6.50;;;14.90;99.90;;;;;;5164377;27;20017;-86
2024/04/11 13:27:38;;;;;;;9.68;6.20;;;15.20;99.90;;;;;;5161408;27;20023;-86
2024/04/11 13:30:13;;;;;;;11.07;6.85;;;14.90;99.90;;;;;;5176166;27;20278;-84
2024/04/11 13:32:48;;;;;;;10.25;5.88;;;14.90;99.90;;;;;;5154972;27;20016;-83
2024/04/11 13:35:36;;;;;;;8.15;6.18;;;14.90;99.90;;;;;;5155561;27;20008;-84
2024/04/11 13:38:12;;;;;;;10.52;7.05;;;14.90;99.90;;;;;;5178030;27;20004;-86
2024/04/11 13:43:04;;;;;;;10.32;6.43;;;14.90;99.90;;;;;;5179244;27;20008;-86
2024/04/11 13:45:29;;;;;;;8.18;6.03;;;14.90;99.90;;;;;;5178892;27;20452;-85
2024/04/11 13:47:58;;;;;;;8.77;5.28;;;15.70;99.90;;;;;;5179035;27;20510;-87
2024/04/11 13:51:15;;;;;;;7.25;5.30;;;14.90;99.90;;;;;;5155232;27;20437;-91
2024/04/11 13:53:14;;;;;;;12.25;6.30;;;14.90;99.90;;;;;;5140394;27;20469;-88
2024/04/11 13:55:43;;;;;;;9.10;6.35;;;14.40;99.90;;;;;;5153678;27;20008;-86
2024/04/11 13:58:09;;;;;;;9.10;6.77;;;14.80;99.90;;;;;;5180148;27;20049;-86
2024/04/11 14:00:38;;;;;;;12.10;6.90;;;14.70;99.90;;;;;;5166182;27;20105;-85
2024/04/11 14:03:23;;;;;;;8.23;5.30;;;14.20;99.90;;;;;;5144906;27;20013;-85
2024/04/11 14:06:22;;;;;;;5.40;4.72;;;14.70;99.90;;;;;;5172315;27;20001;-86
2024/04/11 14:08:47;;;;;;;7.95;4.63;;;14.70;99.90;;;;;;5145205;27;20365;-86
2024/04/11 14:11:17;;;;;;;7.47;3.83;;;14.50;99.90;;;;;;5164673;27;20016;-90
2024/04/11 14:13:43;;;;;;;5.75;3.90;;;15.20;99.90;;;;;;5177561;27;20477;-86
2024/04/11 14:16:12;;;;;;;6.22;4.95;;;15.00;99.90;;;;;;5175878;27;20005;-86
2024/04/11 14:18:39;;;;;;;8.60;5.55;;;15.50;99.90;;;;;;5178045;27;20406;-87
2024/04/11 14:21:18;;;;;;;8.60;5.47;;;14.30;99.90;;;;;;5145286;27;20009;-88
2024/04/11 14:23:52;;;;;;;5.88;5.38;;;15.80;99.90;;;;;;5145427;27;20016;-87
2024/04/11 14:26:51;;;;;;;6.25;4.82;;;14.20;99.90;;;;;;5173584;27;20349;-88
2024/04/11 14:29:21;;;;;;;7.85;6.03;;;14.60;99.90;;;;;;5160651;27;20478;-87
2024/04/11 14:31:49;;;;;;;8.60;5.85;;;14.60;99.90;;;;;;5156908;27;20083;-91
2024/04/11 14:37:09;;;;;;;11.05;7.47;;;14.00;99.90;;;;;;5168229;27;20005;-89
2024/04/11 14:39:33;;;;;;;12.02;7.65;;;14.10;99.90;;;;;;5173137;27;20047;-87
2024/04/11 14:42:04;;;;;;;13.88;6.68;;;14.20;99.90;;;;;;5145968;27;20009;-86
2024/04/11 14:44:32;;;;;;;11.85;8.30;;;14.70;99.90;;;;;;5146541;27;20016;-87
2024/04/11 14:47:02;;;;;;;10.40;7.40;;;14.80;99.90;;;;;;5145338;27;20005;-88
2024/04/11 14:49:27;;;;;;;10.90;7.38;;;14.40;99.90;;;;;;5145948;27;20478;-88
2024/04/11 14:51:53;;;;;;;11.50;7.63;;;14.20;99.90;;;;;;5148755;27;20022;-89
2024/04/11 14:54:25;;;;;;;9.93;7.40;;;15.80;99.90;;;;;;5167073;27;20005;-88
2024/04/11 14:56:55;;;;;;;10.05;7.95;;;15.70;99.90;;;;;;5146850;27;20009;-87
2024/04/11 14:59:26;;;;;;;12.52;8.57;;;15.60;99.90;;;;;;5176456;27;20800;-88
2024/04/11 15:01:55;;;;;;;13.60;9.10;;;14.70;99.90;;;;;;5177615;27;20000;-85
2024/04/11 15:04:20;;;;;;;14.05;9.10;;;14.20;99.90;;;;;;5156213;27;20473;-85
2024/04/11 15:06:47;;;;;;;18.48;9.68;;;14.20;99.90;;;;;;5163956;27;20016;-87
2024/04/11 15:09:34;;;;;;;16.90;9.73;;;14.20;99.90;;;;;;5159427;27;20004;-90
2024/04/11 15:12:02;;;;;;;16.30;10.57;;;14.40;99.90;;;;;;5164597;27;20020;-85
2024/04/11 15:14:32;;;;;;;13.95;9.77;;;14.50;99.90;;;;;;5165762;27;20025;-86
2024/04/11 15:19:43;;;;;;;21.05;12.50;;;14.40;99.90;;;;;;5179090;27;20335;-85
2024/04/11 15:22:11;;;;;;;17.02;10.63;;;15.00;99.90;;;;;;5176871;27;20481;-87
2024/04/11 15:24:42;;;;;;;21.02;11.45;;;14.50;99.90;;;;;;5176808;27;20048;-86
2024/04/11 15:27:11;;;;;;;17.30;11.10;;;14.60;99.90;;;;;;5146204;27;20015;-85
2024/04/11 15:29:57;;;;;;;17.50;11.80;;;14.80;99.90;;;;;;5144097;27;20072;-85
2024/04/11 15:32:32;;;;;;;19.10;12.13;;;15.30;99.90;;;;;;5144204;27;20399;-86
2024/04/11 15:35:08;;;;;;;20.50;12.40;;;14.70;99.90;;;;;;5137623;27;20013;-85
2024/04/11 15:37:56;;;;;;;20.38;12.32;;;14.20;99.90;;;;;;5147908;27;20004;-85
2024/04/11 15:40:22;;;;;;;19.38;11.73;;;14.40;99.90;;;;;;5151280;27;20087;-86
2024/04/11 15:42:49;;;;;;;22.45;13.13;;;14.60;99.90;;;;;;5179846;27;20345;-86
2024/04/11 15:45:19;;;;;;;23.52;12.00;;;14.30;99.90;;;;;;5180068;27;20528;-86
2024/04/11 15:47:45;;;;;;;21.42;12.35;;;14.00;99.90;;;;;;5198816;27;20013;-86
2024/04/11 15:50:16;;;;;;;24.02;12.10;;;14.00;99.90;;;;;;5179425;27;20071;-87
2024/04/11 15:52:45;;;;;;;21.77;10.93;;;14.20;99.90;;;;;;5147850;27;20005;-86
2024/04/11 15:55:17;;;;;;;18.83;10.65;;;14.20;99.90;;;;;;5148380;27;20073;-86
2024/04/11 15:57:43;;;;;;;16.15;9.68;;;14.90;99.90;;;;;;5158978;27;20008;-88
2024/04/11 16:00:10;;;;;;;13.50;9.73;;;14.10;99.90;;;;;;5173652;27;20015;-84
2024/04/11 16:02:43;;;;;;;16.40;9.18;;;14.60;99.90;;;;;;5147809;27;20005;-87
2024/04/11 16:05:24;;;;;;;11.65;8.00;;;14.40;99.90;;;;;;5176590;27;20001;-86
2024/04/11 16:07:59;;;;;;;9.68;6.97;;;14.20;99.90;;;;;;5154226;27;20024;-87
2024/04/11 16:10:34;;;;;;;9.60;6.68;;;14.50;99.90;;;;;;5146390;27;20015;-86
2024/04/11 16:13:12;;;;;;;9.10;6.68;;;16.10;99.90;;;;;;5148414;27;20016;-86